Главная страница
METAR-TAF:

METAR-TAF

Аэропорты :

Будё, Норвегия

широта: 67-16N, долгота: 014-22E, высота над уровнем моря: 1 м

Текущие метеонаблюдения

Эта сводка был подготовлена 44 минут назад, в 18:20 UTC
Ветер 7 Узел от северо-северо-восточный, изменяющийся между северный и северо-восточный
Температура 20°C
Влажность 68%
Давление 1007 hPa
Видимость 10 км и более
Нет облачности ниже 1500 м, и нет кучево-дождевой облачности

METAR: ENBO 251820Z 02007KT 350V050 CAVOK 20/14 Q1007 BECMG 10010KT

Время: 21:04 (19:04 UTC)

Прогноз

Эта сводка был подготовлена 2 часа и 4 минут назад, в 17:00 UTC
Прогноз действительный с 25-го 18 UTC до 26-го 18 UTC
Ветер 8 Узел от северо-северо-восточный
Видимость 10 км и более
Рассеянная облачность на высоте 4500 фута
изменения
С 25-го 18 UTC до 25-го 21 UTC
Ветер 10 Узел от восточный
изменения
С 26-го 10 UTC до 26-го 12 UTC
Ветер 8 Узел от северо-северо-восточный

TAF: ENBO 251700Z 2518/2618 03008KT 9999 BKN045 BECMG 2518/2521 09010KT BECMG 2610/2612 02008KT

Метеонаблюдения и прогнозы для более 4000 аэропортов (сводки METAR и TAF).

Имеющиеся станции представлены на карте желтыми и красными точками.

Чтобы увидеть название станции, наведите на нее мышь.

Затем щелкните, чтобы увидеть метеонаблюдения и метеопрогнозы.

Управление картой: чтобы увеличить масштаб, щелкните зеленые кнопки с черным крестиком; чтобы уменьшить масштаб, щелкните зеленую кнопку с тире; для просмотра соседних карт щелкайте зеленые стрелки.


METAR-TAF: